LTCC Airport Information

Runway Information
Runway 16 Length 11644 ft width 148 ft
Elevation 2251 ft Threshold 0 ft Heading 163
Runway 34 Length 11644 ft Width 148 ft
Elevation 2176 ft Threshold 0 ft Heading 343
Airport Frequencies
Type ACP Name MAC ALCE Frequency 123.2 MHZ
Type APP Name APP Frequency 122.1 MHZ
Type ATIS Name ATIS Frequency 122.425 MHZ
Type GND Name GND Frequency 122.1 MHZ
Type TWR Name TWR Frequency 118.1 MHZ
Airport Navaids
Type TACAN Name Diyarbakir Frequency 110000 KHZ
Type VOR-DME Name Diyarbakir Frequency 109400 KHZ
Type NDB Name Diyarbakir Frequency 330 KHZ
Airport Weather Information & NOTAM
ADDS - METARS form results

(2244 UTC 18 June 2019)
Data provider http://aviationweather.gov/metar/data/
 
METAR text: LTCC 182220Z 19003KT 150V230 CAVOK 21/11 Q1008 NOSIG RMK RWY16 20003KT 170V280
Conditions at: LTCC (DIYARBAKIR(CIV/A, TR) observed 2220 UTC 18 June 2019
Temperature: 21.0°C (70°F)
Dewpoint: 11.0°C (52°F) [RH = 53%]
Pressure (altimeter): 29.76 inches Hg (1008.0 mb)
Winds: from the S (190 degrees) at 3 MPH (3 knots; 1.5 m/s)
Visibility: 6 or more miles (10+ km)
Ceiling: ceiling and visibility are OK
Clouds: unknown
Weather: no significant weather observed at this time

METAR text: LTCC 182150Z 00000KT CAVOK 21/12 Q1008 NOSIG RMK RWY16 26004KT 200V300
Conditions at: LTCC (DIYARBAKIR(CIV/A, TR) observed 2150 UTC 18 June 2019
Temperature: 21.0°C (70°F)
Dewpoint: 12.0°C (54°F) [RH = 56%]
Pressure (altimeter): 29.76 inches Hg (1008.0 mb)
Winds: calm
Visibility: 6 or more miles (10+ km)
Ceiling: ceiling and visibility are OK
Clouds: unknown
Weather: no significant weather observed at this time

Forecast for: LTCC (DIYARBAKIR(CIV/A, TR)
Text: TAF LTCC 181640Z 1818/1918 30007KT CAVOK
Forecast period: 1800 UTC 18 June 2019 to 0700 UTC 19 June 2019
Forecast type: FROM: standard forecast or significant change
Winds: from the WNW (300 degrees) at 8 MPH (7 knots; 3.6 m/s)
Visibility: 6 or more miles 10+ km)
Ceiling: unknown
Clouds: missing
Weather: NSW  (no significant weather)
Text: BECMG 1907/1910 FEW040
Forecast period: 0700 to 1800 UTC 19 June 2019
Forecast type: BECOMING: Conditions expected to become as follows by 1000 UTC 19 June 2019
Winds: from the WNW (300 degrees) at 8 MPH (7 knots; 3.6 m/s)
Visibility: 6 or more miles 10+ km)
Ceiling: at least 12,000 feet AGL
Clouds: few clouds at 4000 feet AGL
Weather: NSW  (no significant weather)